sensor_id;sensor_type;location;lat;lon;timestamp;P1;durP1;ratioP1;P2;durP2;ratioP2
62808;SDS011;48848;39.002;-94.584;2022-07-21T00:01:50;4.38;;;2.95;;
62808;SDS011;48848;39.002;-94.584;2022-07-21T00:04:18;4.75;;;3.00;;
62808;SDS011;48848;39.002;-94.584;2022-07-21T00:06:45;4.55;;;2.80;;
62808;SDS011;48848;39.002;-94.584;2022-07-21T00:09:12;5.07;;;3.28;;
62808;SDS011;48848;39.002;-94.584;2022-07-21T00:11:39;7.30;;;3.05;;
62808;SDS011;48848;39.002;-94.584;2022-07-21T00:14:07;6.25;;;2.95;;
62808;SDS011;48848;39.002;-94.584;2022-07-21T00:16:35;4.47;;;2.97;;
62808;SDS011;48848;39.002;-94.584;2022-07-21T00:19:02;11.32;;;3.10;;
62808;SDS011;48848;39.002;-94.584;2022-07-21T00:21:28;4.82;;;3.20;;
62808;SDS011;48848;39.002;-94.584;2022-07-21T00:23:55;5.93;;;3.83;;
62808;SDS011;48848;39.002;-94.584;2022-07-21T00:26:21;5.78;;;3.55;;
62808;SDS011;48848;39.002;-94.584;2022-07-21T00:28:48;5.95;;;3.92;;
62808;SDS011;48848;39.002;-94.584;2022-07-21T00:31:14;5.50;;;3.67;;
62808;SDS011;48848;39.002;-94.584;2022-07-21T00:33:41;6.18;;;3.30;;
62808;SDS011;48848;39.002;-94.584;2022-07-21T00:36:07;5.00;;;3.40;;
62808;SDS011;48848;39.002;-94.584;2022-07-21T00:38:34;5.43;;;3.88;;
62808;SDS011;48848;39.002;-94.584;2022-07-21T00:41:00;4.82;;;3.17;;
62808;SDS011;48848;39.002;-94.584;2022-07-21T00:43:27;16.63;;;4.22;;
62808;SDS011;48848;39.002;-94.584;2022-07-21T00:45:53;5.78;;;3.28;;
62808;SDS011;48848;39.002;-94.584;2022-07-21T00:48:20;6.32;;;3.40;;
62808;SDS011;48848;39.002;-94.584;2022-07-21T00:50:47;5.45;;;3.00;;
62808;SDS011;48848;39.002;-94.584;2022-07-21T00:53:13;6.85;;;3.50;;
62808;SDS011;48848;39.002;-94.584;2022-07-21T00:55:43;5.78;;;2.80;;
62808;SDS011;48848;39.002;-94.584;2022-07-21T00:58:11;8.55;;;3.28;;
62808;SDS011;48848;39.002;-94.584;2022-07-21T01:00:38;4.50;;;3.00;;
62808;SDS011;48848;39.002;-94.584;2022-07-21T01:03:05;5.25;;;2.83;;
62808;SDS011;48848;39.002;-94.584;2022-07-21T01:05:32;4.50;;;3.05;;
62808;SDS011;48848;39.002;-94.584;2022-07-21T01:07:58;4.90;;;2.95;;
62808;SDS011;48848;39.002;-94.584;2022-07-21T01:10:28;6.55;;;2.92;;
62808;SDS011;48848;39.002;-94.584;2022-07-21T01:12:57;8.02;;;2.97;;
62808;SDS011;48848;39.002;-94.584;2022-07-21T01:15:24;10.25;;;2.80;;
62808;SDS011;48848;39.002;-94.584;2022-07-21T01:17:50;5.15;;;3.05;;
62808;SDS011;48848;39.002;-94.584;2022-07-21T01:20:18;6.43;;;3.05;;
62808;SDS011;48848;39.002;-94.584;2022-07-21T01:22:48;4.72;;;3.15;;
62808;SDS011;48848;39.002;-94.584;2022-07-21T01:25:17;4.72;;;2.95;;
62808;SDS011;48848;39.002;-94.584;2022-07-21T01:27:44;4.55;;;2.70;;
62808;SDS011;48848;39.002;-94.584;2022-07-21T01:30:11;4.22;;;2.83;;
62808;SDS011;48848;39.002;-94.584;2022-07-21T01:32:38;4.20;;;2.80;;
62808;SDS011;48848;39.002;-94.584;2022-07-21T01:35:07;3.65;;;2.35;;
62808;SDS011;48848;39.002;-94.584;2022-07-21T01:37:39;4.30;;;2.83;;
62808;SDS011;48848;39.002;-94.584;2022-07-21T01:40:07;3.70;;;2.40;;
62808;SDS011;48848;39.002;-94.584;2022-07-21T01:42:52;4.43;;;2.70;;
62808;SDS011;48848;39.002;-94.584;2022-07-21T01:45:19;5.85;;;2.60;;
62808;SDS011;48848;39.002;-94.584;2022-07-21T01:47:45;3.97;;;2.40;;
62808;SDS011;48848;39.002;-94.584;2022-07-21T01:50:11;3.97;;;2.40;;
62808;SDS011;48848;39.002;-94.584;2022-07-21T01:52:38;7.00;;;2.58;;
62808;SDS011;48848;39.002;-94.584;2022-07-21T01:55:04;4.80;;;2.60;;
62808;SDS011;48848;39.002;-94.584;2022-07-21T01:57:31;6.18;;;2.90;;
62808;SDS011;48848;39.002;-94.584;2022-07-21T01:59:57;6.53;;;2.90;;
62808;SDS011;48848;39.002;-94.584;2022-07-21T02:02:23;6.93;;;2.60;;
62808;SDS011;48848;39.002;-94.584;2022-07-21T02:04:49;5.10;;;2.50;;
62808;SDS011;48848;39.002;-94.584;2022-07-21T02:07:16;4.88;;;2.70;;
62808;SDS011;48848;39.002;-94.584;2022-07-21T02:09:42;4.78;;;2.38;;
62808;SDS011;48848;39.002;-94.584;2022-07-21T02:12:08;3.95;;;2.45;;
62808;SDS011;48848;39.002;-94.584;2022-07-21T02:14:34;3.90;;;2.55;;
62808;SDS011;48848;39.002;-94.584;2022-07-21T02:17:01;4.25;;;2.60;;
62808;SDS011;48848;39.002;-94.584;2022-07-21T02:19:27;3.80;;;2.50;;
62808;SDS011;48848;39.002;-94.584;2022-07-21T02:21:54;3.45;;;2.17;;
62808;SDS011;48848;39.002;-94.584;2022-07-21T02:24:20;4.00;;;2.63;;
62808;SDS011;48848;39.002;-94.584;2022-07-21T02:26:46;4.25;;;2.72;;
62808;SDS011;48848;39.002;-94.584;2022-07-21T02:29:13;4.35;;;2.80;;
62808;SDS011;48848;39.002;-94.584;2022-07-21T02:31:39;4.72;;;3.00;;
62808;SDS011;48848;39.002;-94.584;2022-07-21T02:34:05;4.05;;;2.63;;
62808;SDS011;48848;39.002;-94.584;2022-07-21T02:36:32;4.20;;;2.60;;
62808;SDS011;48848;39.002;-94.584;2022-07-21T02:38:58;3.58;;;2.33;;
62808;SDS011;48848;39.002;-94.584;2022-07-21T02:41:25;3.92;;;2.47;;
62808;SDS011;48848;39.002;-94.584;2022-07-21T02:43:51;8.88;;;2.33;;
62808;SDS011;48848;39.002;-94.584;2022-07-21T02:46:17;3.53;;;2.17;;
62808;SDS011;48848;39.002;-94.584;2022-07-21T02:48:43;6.97;;;2.35;;
62808;SDS011;48848;39.002;-94.584;2022-07-21T02:51:09;3.95;;;2.50;;
62808;SDS011;48848;39.002;-94.584;2022-07-21T02:53:35;5.38;;;2.47;;
62808;SDS011;48848;39.002;-94.584;2022-07-21T02:56:02;4.25;;;2.58;;
62808;SDS011;48848;39.002;-94.584;2022-07-21T02:58:28;6.60;;;2.72;;
62808;SDS011;48848;39.002;-94.584;2022-07-21T03:00:57;4.15;;;2.80;;
62808;SDS011;48848;39.002;-94.584;2022-07-21T03:03:30;5.28;;;2.55;;
62808;SDS011;48848;39.002;-94.584;2022-07-21T03:05:58;4.68;;;2.80;;
62808;SDS011;48848;39.002;-94.584;2022-07-21T03:08:25;5.20;;;2.67;;
62808;SDS011;48848;39.002;-94.584;2022-07-21T03:10:52;6.93;;;2.63;;
62808;SDS011;48848;39.002;-94.584;2022-07-21T03:13:19;6.63;;;2.70;;
62808;SDS011;48848;39.002;-94.584;2022-07-21T03:15:46;3.92;;;2.60;;
62808;SDS011;48848;39.002;-94.584;2022-07-21T03:18:13;4.63;;;2.60;;
62808;SDS011;48848;39.002;-94.584;2022-07-21T03:20:39;9.27;;;2.70;;
62808;SDS011;48848;39.002;-94.584;2022-07-21T03:23:07;4.80;;;2.83;;
62808;SDS011;48848;39.002;-94.584;2022-07-21T03:25:33;3.90;;;2.38;;
62808;SDS011;48848;39.002;-94.584;2022-07-21T03:28:00;4.55;;;2.72;;
62808;SDS011;48848;39.002;-94.584;2022-07-21T03:30:27;5.57;;;2.67;;
62808;SDS011;48848;39.002;-94.584;2022-07-21T03:32:54;3.70;;;2.50;;
62808;SDS011;48848;39.002;-94.584;2022-07-21T03:35:20;4.43;;;2.63;;
62808;SDS011;48848;39.002;-94.584;2022-07-21T03:37:47;4.00;;;2.55;;
62808;SDS011;48848;39.002;-94.584;2022-07-21T03:40:17;4.75;;;2.45;;
62808;SDS011;48848;39.002;-94.584;2022-07-21T03:42:48;9.02;;;2.50;;
62808;SDS011;48848;39.002;-94.584;2022-07-21T03:45:15;3.70;;;2.40;;
62808;SDS011;48848;39.002;-94.584;2022-07-21T03:47:42;4.78;;;2.38;;
62808;SDS011;48848;39.002;-94.584;2022-07-21T03:50:08;3.80;;;2.40;;
62808;SDS011;48848;39.002;-94.584;2022-07-21T03:52:37;3.92;;;2.47;;
62808;SDS011;48848;39.002;-94.584;2022-07-21T03:55:03;4.15;;;2.40;;
62808;SDS011;48848;39.002;-94.584;2022-07-21T03:57:40;3.70;;;2.30;;
62808;SDS011;48848;39.002;-94.584;2022-07-21T04:00:07;3.67;;;2.40;;
62808;SDS011;48848;39.002;-94.584;2022-07-21T04:02:36;3.90;;;2.50;;
62808;SDS011;48848;39.002;-94.584;2022-07-21T04:05:02;3.85;;;2.40;;
62808;SDS011;48848;39.002;-94.584;2022-07-21T04:07:29;3.40;;;2.20;;
62808;SDS011;48848;39.002;-94.584;2022-07-21T04:09:56;3.85;;;2.38;;
62808;SDS011;48848;39.002;-94.584;2022-07-21T04:12:26;3.92;;;2.28;;
62808;SDS011;48848;39.002;-94.584;2022-07-21T04:14:53;3.90;;;2.25;;
62808;SDS011;48848;39.002;-94.584;2022-07-21T04:17:20;3.42;;;2.20;;
62808;SDS011;48848;39.002;-94.584;2022-07-21T04:19:46;3.55;;;2.17;;
62808;SDS011;48848;39.002;-94.584;2022-07-21T04:22:13;3.30;;;2.05;;
62808;SDS011;48848;39.002;-94.584;2022-07-21T04:24:39;3.50;;;2.20;;
62808;SDS011;48848;39.002;-94.584;2022-07-21T04:27:06;3.50;;;2.20;;
62808;SDS011;48848;39.002;-94.584;2022-07-21T04:29:32;3.30;;;2.00;;
62808;SDS011;48848;39.002;-94.584;2022-07-21T04:31:58;5.90;;;2.15;;
62808;SDS011;48848;39.002;-94.584;2022-07-21T04:34:24;4.00;;;2.30;;
62808;SDS011;48848;39.002;-94.584;2022-07-21T04:36:52;4.28;;;2.40;;
62808;SDS011;48848;39.002;-94.584;2022-07-21T04:39:18;5.68;;;2.17;;
62808;SDS011;48848;39.002;-94.584;2022-07-21T04:41:44;3.58;;;2.28;;
62808;SDS011;48848;39.002;-94.584;2022-07-21T04:44:11;4.07;;;2.40;;
62808;SDS011;48848;39.002;-94.584;2022-07-21T04:46:37;3.67;;;2.28;;
62808;SDS011;48848;39.002;-94.584;2022-07-21T04:49:03;3.40;;;2.00;;
62808;SDS011;48848;39.002;-94.584;2022-07-21T04:51:29;3.67;;;2.25;;
62808;SDS011;48848;39.002;-94.584;2022-07-21T04:53:55;3.17;;;1.90;;
62808;SDS011;48848;39.002;-94.584;2022-07-21T04:56:21;3.47;;;2.20;;
62808;SDS011;48848;39.002;-94.584;2022-07-21T04:58:48;3.40;;;2.20;;
62808;SDS011;48848;39.002;-94.584;2022-07-21T05:01:14;3.63;;;2.15;;
62808;SDS011;48848;39.002;-94.584;2022-07-21T05:03:43;3.35;;;2.08;;
62808;SDS011;48848;39.002;-94.584;2022-07-21T05:06:09;3.83;;;2.30;;
62808;SDS011;48848;39.002;-94.584;2022-07-21T05:08:36;3.20;;;2.05;;
62808;SDS011;48848;39.002;-94.584;2022-07-21T05:11:02;3.72;;;2.30;;
62808;SDS011;48848;39.002;-94.584;2022-07-21T05:13:28;3.55;;;1.95;;
62808;SDS011;48848;39.002;-94.584;2022-07-21T05:15:54;3.72;;;2.20;;
62808;SDS011;48848;39.002;-94.584;2022-07-21T05:18:20;3.88;;;2.17;;
62808;SDS011;48848;39.002;-94.584;2022-07-21T05:20:46;3.83;;;2.00;;
62808;SDS011;48848;39.002;-94.584;2022-07-21T05:23:12;3.58;;;2.20;;
62808;SDS011;48848;39.002;-94.584;2022-07-21T05:25:39;3.45;;;2.03;;
62808;SDS011;48848;39.002;-94.584;2022-07-21T05:28:05;3.30;;;2.08;;
62808;SDS011;48848;39.002;-94.584;2022-07-21T05:30:32;3.75;;;2.20;;
62808;SDS011;48848;39.002;-94.584;2022-07-21T05:32:58;3.58;;;2.13;;
62808;SDS011;48848;39.002;-94.584;2022-07-21T05:35:24;3.60;;;2.20;;
62808;SDS011;48848;39.002;-94.584;2022-07-21T05:37:50;3.20;;;1.90;;
62808;SDS011;48848;39.002;-94.584;2022-07-21T05:40:20;3.60;;;2.15;;
62808;SDS011;48848;39.002;-94.584;2022-07-21T05:42:46;3.42;;;2.10;;
62808;SDS011;48848;39.002;-94.584;2022-07-21T05:45:12;3.88;;;2.10;;
62808;SDS011;48848;39.002;-94.584;2022-07-21T05:47:39;3.70;;;2.10;;
62808;SDS011;48848;39.002;-94.584;2022-07-21T05:50:05;3.40;;;2.15;;
62808;SDS011;48848;39.002;-94.584;2022-07-21T05:52:32;3.30;;;2.10;;
62808;SDS011;48848;39.002;-94.584;2022-07-21T05:54:58;3.53;;;2.10;;
62808;SDS011;48848;39.002;-94.584;2022-07-21T05:57:24;3.30;;;2.00;;
62808;SDS011;48848;39.002;-94.584;2022-07-21T05:59:51;3.35;;;2.10;;
62808;SDS011;48848;39.002;-94.584;2022-07-21T06:02:17;3.50;;;2.10;;
62808;SDS011;48848;39.002;-94.584;2022-07-21T06:04:43;3.40;;;2.10;;
62808;SDS011;48848;39.002;-94.584;2022-07-21T06:07:10;3.85;;;2.20;;
62808;SDS011;48848;39.002;-94.584;2022-07-21T06:09:36;3.42;;;2.05;;
62808;SDS011;48848;39.002;-94.584;2022-07-21T06:12:02;3.55;;;2.10;;
62808;SDS011;48848;39.002;-94.584;2022-07-21T06:14:28;3.38;;;2.03;;
62808;SDS011;48848;39.002;-94.584;2022-07-21T06:16:55;3.80;;;2.10;;
62808;SDS011;48848;39.002;-94.584;2022-07-21T06:19:21;3.20;;;1.92;;
62808;SDS011;48848;39.002;-94.584;2022-07-21T06:21:47;3.42;;;2.08;;
62808;SDS011;48848;39.002;-94.584;2022-07-21T06:24:13;3.28;;;2.00;;
62808;SDS011;48848;39.002;-94.584;2022-07-21T06:26:40;3.38;;;1.95;;
62808;SDS011;48848;39.002;-94.584;2022-07-21T06:29:06;3.42;;;2.00;;
62808;SDS011;48848;39.002;-94.584;2022-07-21T06:31:33;3.40;;;2.10;;
62808;SDS011;48848;39.002;-94.584;2022-07-21T06:33:59;3.80;;;2.10;;
62808;SDS011;48848;39.002;-94.584;2022-07-21T06:36:26;3.42;;;2.00;;
62808;SDS011;48848;39.002;-94.584;2022-07-21T06:38:52;3.50;;;2.20;;
62808;SDS011;48848;39.002;-94.584;2022-07-21T06:41:18;4.72;;;2.13;;
62808;SDS011;48848;39.002;-94.584;2022-07-21T06:43:44;3.97;;;2.20;;
62808;SDS011;48848;39.002;-94.584;2022-07-21T06:46:10;4.00;;;2.38;;
62808;SDS011;48848;39.002;-94.584;2022-07-21T06:48:36;5.70;;;1.90;;
62808;SDS011;48848;39.002;-94.584;2022-07-21T06:51:03;3.67;;;2.10;;
62808;SDS011;48848;39.002;-94.584;2022-07-21T06:53:29;3.53;;;2.03;;
62808;SDS011;48848;39.002;-94.584;2022-07-21T06:55:55;4.05;;;2.40;;
62808;SDS011;48848;39.002;-94.584;2022-07-21T06:58:23;3.40;;;2.10;;
62808;SDS011;48848;39.002;-94.584;2022-07-21T07:00:50;3.40;;;2.10;;
62808;SDS011;48848;39.002;-94.584;2022-07-21T07:03:17;4.28;;;2.20;;
62808;SDS011;48848;39.002;-94.584;2022-07-21T07:05:44;3.63;;;2.30;;
62808;SDS011;48848;39.002;-94.584;2022-07-21T07:08:12;4.00;;;2.35;;
62808;SDS011;48848;39.002;-94.584;2022-07-21T07:10:39;3.25;;;1.95;;
62808;SDS011;48848;39.002;-94.584;2022-07-21T07:13:06;3.83;;;2.30;;
62808;SDS011;48848;39.002;-94.584;2022-07-21T07:15:33;3.22;;;2.00;;
62808;SDS011;48848;39.002;-94.584;2022-07-21T07:17:59;3.78;;;2.00;;
62808;SDS011;48848;39.002;-94.584;2022-07-21T07:20:26;3.95;;;2.20;;
62808;SDS011;48848;39.002;-94.584;2022-07-21T07:22:52;3.70;;;2.30;;
62808;SDS011;48848;39.002;-94.584;2022-07-21T07:25:18;4.05;;;2.60;;
62808;SDS011;48848;39.002;-94.584;2022-07-21T07:27:45;3.65;;;2.10;;
62808;SDS011;48848;39.002;-94.584;2022-07-21T07:30:12;4.32;;;2.70;;
62808;SDS011;48848;39.002;-94.584;2022-07-21T07:32:39;4.22;;;2.50;;
62808;SDS011;48848;39.002;-94.584;2022-07-21T07:35:06;5.18;;;3.10;;
62808;SDS011;48848;39.002;-94.584;2022-07-21T07:37:37;5.80;;;3.38;;
62808;SDS011;48848;39.002;-94.584;2022-07-21T07:40:05;7.35;;;3.20;;
62808;SDS011;48848;39.002;-94.584;2022-07-21T07:42:33;7.32;;;3.03;;
62808;SDS011;48848;39.002;-94.584;2022-07-21T07:45:00;4.95;;;3.20;;
62808;SDS011;48848;39.002;-94.584;2022-07-21T07:47:26;4.93;;;2.83;;
62808;SDS011;48848;39.002;-94.584;2022-07-21T07:49:52;4.25;;;2.80;;
62808;SDS011;48848;39.002;-94.584;2022-07-21T07:52:19;4.22;;;2.60;;
62808;SDS011;48848;39.002;-94.584;2022-07-21T07:54:46;4.90;;;2.97;;
62808;SDS011;48848;39.002;-94.584;2022-07-21T07:57:12;4.07;;;2.63;;
62808;SDS011;48848;39.002;-94.584;2022-07-21T07:59:38;4.90;;;2.70;;
62808;SDS011;48848;39.002;-94.584;2022-07-21T08:02:05;4.80;;;2.70;;
62808;SDS011;48848;39.002;-94.584;2022-07-21T08:04:31;6.75;;;2.83;;
62808;SDS011;48848;39.002;-94.584;2022-07-21T08:06:57;3.83;;;2.60;;
62808;SDS011;48848;39.002;-94.584;2022-07-21T08:09:23;4.32;;;2.53;;
62808;SDS011;48848;39.002;-94.584;2022-07-21T08:11:49;4.28;;;2.50;;
62808;SDS011;48848;39.002;-94.584;2022-07-21T08:14:17;4.38;;;2.50;;
62808;SDS011;48848;39.002;-94.584;2022-07-21T08:16:43;3.90;;;2.63;;
62808;SDS011;48848;39.002;-94.584;2022-07-21T08:19:10;4.45;;;2.80;;
62808;SDS011;48848;39.002;-94.584;2022-07-21T08:21:37;4.28;;;2.70;;
62808;SDS011;48848;39.002;-94.584;2022-07-21T08:24:03;4.32;;;2.72;;
62808;SDS011;48848;39.002;-94.584;2022-07-21T08:26:29;4.18;;;2.67;;
62808;SDS011;48848;39.002;-94.584;2022-07-21T08:28:56;4.25;;;2.42;;
62808;SDS011;48848;39.002;-94.584;2022-07-21T08:31:23;4.85;;;2.40;;
62808;SDS011;48848;39.002;-94.584;2022-07-21T08:33:50;4.38;;;2.90;;
62808;SDS011;48848;39.002;-94.584;2022-07-21T08:36:17;4.75;;;3.10;;
62808;SDS011;48848;39.002;-94.584;2022-07-21T08:38:43;5.22;;;3.40;;
62808;SDS011;48848;39.002;-94.584;2022-07-21T08:41:10;5.43;;;3.75;;
62808;SDS011;48848;39.002;-94.584;2022-07-21T08:43:38;6.40;;;3.90;;
62808;SDS011;48848;39.002;-94.584;2022-07-21T08:46:04;5.25;;;3.33;;
62808;SDS011;48848;39.002;-94.584;2022-07-21T08:48:31;5.50;;;3.13;;
62808;SDS011;48848;39.002;-94.584;2022-07-21T08:50:57;6.18;;;3.40;;
62808;SDS011;48848;39.002;-94.584;2022-07-21T08:53:24;6.47;;;3.70;;
62808;SDS011;48848;39.002;-94.584;2022-07-21T08:55:50;6.22;;;3.13;;
62808;SDS011;48848;39.002;-94.584;2022-07-21T08:58:17;5.25;;;3.55;;
62808;SDS011;48848;39.002;-94.584;2022-07-21T09:00:45;4.55;;;2.95;;
62808;SDS011;48848;39.002;-94.584;2022-07-21T09:03:15;5.90;;;3.78;;
62808;SDS011;48848;39.002;-94.584;2022-07-21T09:06:08;5.63;;;3.47;;
62808;SDS011;48848;39.002;-94.584;2022-07-21T09:08:41;6.82;;;3.80;;
62808;SDS011;48848;39.002;-94.584;2022-07-21T09:13:49;6.05;;;3.70;;
62808;SDS011;48848;39.002;-94.584;2022-07-21T09:16:37;5.88;;;3.40;;
62808;SDS011;48848;39.002;-94.584;2022-07-21T09:19:20;5.28;;;3.45;;
62808;SDS011;48848;39.002;-94.584;2022-07-21T09:21:58;5.15;;;3.60;;
62808;SDS011;48848;39.002;-94.584;2022-07-21T09:24:27;6.65;;;3.28;;
62808;SDS011;48848;39.002;-94.584;2022-07-21T09:27:16;5.60;;;3.55;;
62808;SDS011;48848;39.002;-94.584;2022-07-21T09:32:18;6.15;;;3.70;;
62808;SDS011;48848;39.002;-94.584;2022-07-21T09:34:50;5.05;;;3.40;;
62808;SDS011;48848;39.002;-94.584;2022-07-21T09:37:19;5.90;;;3.92;;
62808;SDS011;48848;39.002;-94.584;2022-07-21T09:39:50;6.78;;;3.80;;
62808;SDS011;48848;39.002;-94.584;2022-07-21T09:42:22;6.38;;;4.00;;
62808;SDS011;48848;39.002;-94.584;2022-07-21T09:47:26;5.05;;;3.40;;
62808;SDS011;48848;39.002;-94.584;2022-07-21T09:49:54;5.43;;;3.45;;
62808;SDS011;48848;39.002;-94.584;2022-07-21T09:52:26;4.32;;;2.95;;
62808;SDS011;48848;39.002;-94.584;2022-07-21T09:54:55;5.45;;;3.33;;
62808;SDS011;48848;39.002;-94.584;2022-07-21T09:57:23;4.75;;;2.92;;
62808;SDS011;48848;39.002;-94.584;2022-07-21T09:59:50;5.00;;;3.00;;
62808;SDS011;48848;39.002;-94.584;2022-07-21T10:02:23;4.32;;;2.90;;
62808;SDS011;48848;39.002;-94.584;2022-07-21T10:05:10;6.35;;;3.83;;
62808;SDS011;48848;39.002;-94.584;2022-07-21T10:07:43;4.50;;;3.15;;
62808;SDS011;48848;39.002;-94.584;2022-07-21T10:10:11;4.97;;;3.08;;
62808;SDS011;48848;39.002;-94.584;2022-07-21T10:12:38;5.13;;;3.63;;
62808;SDS011;48848;39.002;-94.584;2022-07-21T10:15:04;4.82;;;3.20;;
62808;SDS011;48848;39.002;-94.584;2022-07-21T10:17:31;5.63;;;3.65;;
62808;SDS011;48848;39.002;-94.584;2022-07-21T10:25:39;6.65;;;3.80;;
62808;SDS011;48848;39.002;-94.584;2022-07-21T10:31:28;6.05;;;3.92;;
62808;SDS011;48848;39.002;-94.584;2022-07-21T10:41:38;5.95;;;4.18;;
62808;SDS011;48848;39.002;-94.584;2022-07-21T10:47:03;6.40;;;4.10;;
62808;SDS011;48848;39.002;-94.584;2022-07-21T10:57:37;7.20;;;4.53;;
62808;SDS011;48848;39.002;-94.584;2022-07-21T11:00:46;10.02;;;4.40;;
62808;SDS011;48848;39.002;-94.584;2022-07-21T11:05:22;7.07;;;4.38;;
62808;SDS011;48848;39.002;-94.584;2022-07-21T11:08:09;6.72;;;4.50;;
62808;SDS011;48848;39.002;-94.584;2022-07-21T11:10:42;7.30;;;4.43;;
62808;SDS011;48848;39.002;-94.584;2022-07-21T11:13:12;9.60;;;4.72;;
62808;SDS011;48848;39.002;-94.584;2022-07-21T11:15:58;7.32;;;4.70;;
62808;SDS011;48848;39.002;-94.584;2022-07-21T11:18:27;7.22;;;4.85;;
62808;SDS011;48848;39.002;-94.584;2022-07-21T11:21:11;8.05;;;4.68;;
62808;SDS011;48848;39.002;-94.584;2022-07-21T11:26:10;7.67;;;5.27;;
62808;SDS011;48848;39.002;-94.584;2022-07-21T11:28:38;8.15;;;4.95;;
62808;SDS011;48848;39.002;-94.584;2022-07-21T11:31:16;7.95;;;4.72;;
62808;SDS011;48848;39.002;-94.584;2022-07-21T11:33:46;8.57;;;4.95;;
62808;SDS011;48848;39.002;-94.584;2022-07-21T11:36:47;39.05;;;5.15;;
62808;SDS011;48848;39.002;-94.584;2022-07-21T11:39:10;8.60;;;4.97;;
62808;SDS011;48848;39.002;-94.584;2022-07-21T11:41:38;6.15;;;4.38;;
62808;SDS011;48848;39.002;-94.584;2022-07-21T11:44:07;9.00;;;5.20;;
62808;SDS011;48848;39.002;-94.584;2022-07-21T11:46:48;7.82;;;4.72;;
62808;SDS011;48848;39.002;-94.584;2022-07-21T11:49:14;7.97;;;4.90;;
62808;SDS011;48848;39.002;-94.584;2022-07-21T11:51:51;7.85;;;5.15;;
62808;SDS011;48848;39.002;-94.584;2022-07-21T11:54:21;7.63;;;5.30;;
62808;SDS011;48848;39.002;-94.584;2022-07-21T11:56:50;9.57;;;5.05;;
62808;SDS011;48848;39.002;-94.584;2022-07-21T11:59:17;7.28;;;5.00;;
62808;SDS011;48848;39.002;-94.584;2022-07-21T12:01:47;6.60;;;4.82;;
62808;SDS011;48848;39.002;-94.584;2022-07-21T12:04:26;8.40;;;4.75;;
62808;SDS011;48848;39.002;-94.584;2022-07-21T12:06:52;8.18;;;4.90;;
62808;SDS011;48848;39.002;-94.584;2022-07-21T12:09:19;8.13;;;5.38;;
62808;SDS011;48848;39.002;-94.584;2022-07-21T12:11:45;8.05;;;5.30;;
62808;SDS011;48848;39.002;-94.584;2022-07-21T12:14:13;7.15;;;4.80;;
62808;SDS011;48848;39.002;-94.584;2022-07-21T12:16:52;7.00;;;4.47;;
62808;SDS011;48848;39.002;-94.584;2022-07-21T12:19:19;9.57;;;4.18;;
62808;SDS011;48848;39.002;-94.584;2022-07-21T12:21:51;6.13;;;4.20;;
62808;SDS011;48848;39.002;-94.584;2022-07-21T12:24:18;5.95;;;4.20;;
62808;SDS011;48848;39.002;-94.584;2022-07-21T12:26:45;7.30;;;4.22;;
62808;SDS011;48848;39.002;-94.584;2022-07-21T12:29:28;5.82;;;4.03;;
62808;SDS011;48848;39.002;-94.584;2022-07-21T12:31:54;6.78;;;4.15;;
62808;SDS011;48848;39.002;-94.584;2022-07-21T12:34:22;6.22;;;4.00;;
62808;SDS011;48848;39.002;-94.584;2022-07-21T12:36:49;6.22;;;3.78;;
62808;SDS011;48848;39.002;-94.584;2022-07-21T12:39:22;6.78;;;3.90;;
62808;SDS011;48848;39.002;-94.584;2022-07-21T12:42:10;7.90;;;4.20;;
62808;SDS011;48848;39.002;-94.584;2022-07-21T12:44:52;12.85;;;4.22;;
62808;SDS011;48848;39.002;-94.584;2022-07-21T12:47:19;10.80;;;4.32;;
62808;SDS011;48848;39.002;-94.584;2022-07-21T12:50:03;7.85;;;4.20;;
62808;SDS011;48848;39.002;-94.584;2022-07-21T12:52:31;20.20;;;5.40;;
62808;SDS011;48848;39.002;-94.584;2022-07-21T12:54:58;12.18;;;4.45;;
62808;SDS011;48848;39.002;-94.584;2022-07-21T12:57:29;15.63;;;4.47;;
62808;SDS011;48848;39.002;-94.584;2022-07-21T12:59:57;13.40;;;4.22;;
62808;SDS011;48848;39.002;-94.584;2022-07-21T13:02:24;12.30;;;4.03;;
62808;SDS011;48848;39.002;-94.584;2022-07-21T13:04:51;13.02;;;4.07;;
62808;SDS011;48848;39.002;-94.584;2022-07-21T13:07:18;9.13;;;4.25;;
62808;SDS011;48848;39.002;-94.584;2022-07-21T13:09:44;10.30;;;4.20;;
62808;SDS011;48848;39.002;-94.584;2022-07-21T13:12:11;18.00;;;4.32;;
62808;SDS011;48848;39.002;-94.584;2022-07-21T13:14:39;14.73;;;4.50;;
62808;SDS011;48848;39.002;-94.584;2022-07-21T13:17:06;10.85;;;4.60;;
62808;SDS011;48848;39.002;-94.584;2022-07-21T13:19:33;11.48;;;4.50;;
62808;SDS011;48848;39.002;-94.584;2022-07-21T13:22:03;18.58;;;4.45;;
62808;SDS011;48848;39.002;-94.584;2022-07-21T13:24:29;8.65;;;4.32;;
62808;SDS011;48848;39.002;-94.584;2022-07-21T13:26:56;9.85;;;4.47;;
62808;SDS011;48848;39.002;-94.584;2022-07-21T13:29:22;10.75;;;4.40;;
62808;SDS011;48848;39.002;-94.584;2022-07-21T13:31:48;14.38;;;4.50;;
62808;SDS011;48848;39.002;-94.584;2022-07-21T13:34:14;12.23;;;4.70;;
62808;SDS011;48848;39.002;-94.584;2022-07-21T13:36:40;10.35;;;4.60;;
62808;SDS011;48848;39.002;-94.584;2022-07-21T13:39:06;7.85;;;4.18;;
62808;SDS011;48848;39.002;-94.584;2022-07-21T13:41:33;8.52;;;4.43;;
62808;SDS011;48848;39.002;-94.584;2022-07-21T13:43:59;11.32;;;4.80;;
62808;SDS011;48848;39.002;-94.584;2022-07-21T13:46:26;13.05;;;4.80;;
62808;SDS011;48848;39.002;-94.584;2022-07-21T13:48:52;12.00;;;4.93;;
62808;SDS011;48848;39.002;-94.584;2022-07-21T13:51:19;9.93;;;5.00;;
62808;SDS011;48848;39.002;-94.584;2022-07-21T13:53:47;10.15;;;4.93;;
62808;SDS011;48848;39.002;-94.584;2022-07-21T13:56:14;9.10;;;4.75;;
62808;SDS011;48848;39.002;-94.584;2022-07-21T13:58:42;9.00;;;5.15;;
62808;SDS011;48848;39.002;-94.584;2022-07-21T14:01:09;9.85;;;4.95;;
62808;SDS011;48848;39.002;-94.584;2022-07-21T14:03:36;10.80;;;5.30;;
62808;SDS011;48848;39.002;-94.584;2022-07-21T14:06:03;15.10;;;5.43;;
62808;SDS011;48848;39.002;-94.584;2022-07-21T14:08:30;12.80;;;5.90;;
62808;SDS011;48848;39.002;-94.584;2022-07-21T14:10:56;12.32;;;5.72;;
62808;SDS011;48848;39.002;-94.584;2022-07-21T14:13:22;10.05;;;5.25;;
62808;SDS011;48848;39.002;-94.584;2022-07-21T14:15:49;17.08;;;5.15;;
62808;SDS011;48848;39.002;-94.584;2022-07-21T14:18:15;14.43;;;5.60;;
62808;SDS011;48848;39.002;-94.584;2022-07-21T14:20:41;11.13;;;5.30;;
62808;SDS011;48848;39.002;-94.584;2022-07-21T14:23:07;12.82;;;5.32;;
62808;SDS011;48848;39.002;-94.584;2022-07-21T14:25:33;11.45;;;5.20;;
62808;SDS011;48848;39.002;-94.584;2022-07-21T14:27:59;11.93;;;5.07;;
62808;SDS011;48848;39.002;-94.584;2022-07-21T14:30:27;17.67;;;5.00;;
62808;SDS011;48848;39.002;-94.584;2022-07-21T14:32:54;26.63;;;5.72;;
62808;SDS011;48848;39.002;-94.584;2022-07-21T14:35:20;20.00;;;5.50;;
62808;SDS011;48848;39.002;-94.584;2022-07-21T14:37:48;11.82;;;5.18;;
62808;SDS011;48848;39.002;-94.584;2022-07-21T14:40:15;17.38;;;5.63;;
62808;SDS011;48848;39.002;-94.584;2022-07-21T14:42:43;23.13;;;5.63;;
62808;SDS011;48848;39.002;-94.584;2022-07-21T14:45:11;26.35;;;5.78;;
62808;SDS011;48848;39.002;-94.584;2022-07-21T14:47:37;23.42;;;5.70;;
62808;SDS011;48848;39.002;-94.584;2022-07-21T14:50:03;18.27;;;5.72;;
62808;SDS011;48848;39.002;-94.584;2022-07-21T14:52:30;14.77;;;5.45;;
62808;SDS011;48848;39.002;-94.584;2022-07-21T14:54:56;25.90;;;6.22;;
62808;SDS011;48848;39.002;-94.584;2022-07-21T14:57:22;12.35;;;5.30;;
62808;SDS011;48848;39.002;-94.584;2022-07-21T14:59:49;11.32;;;5.63;;
62808;SDS011;48848;39.002;-94.584;2022-07-21T15:02:15;7.78;;;5.35;;
62808;SDS011;48848;39.002;-94.584;2022-07-21T15:04:42;12.88;;;6.15;;